Main page
METAR-TAF:

METAR-TAF

Airports :

Aeroporto di Cameri

Novara, Italy

latitude: 45-31N, longitude: 008-40E, elevation: 178 m

METAR: missing

Time: 00:36 (22:36 UTC)

Forecast

The report was made 5 hours and 36 minutes ago, at 17:00 UTC
Forecast valid from 21 at 18 UTC to 22 at 03 UTC
Wind 5 kt from variable directions
Visibility 10 km or more
Scattered clouds at a height of 6000 ft

TAF: LIMN 211700Z 2118/2203 VRB05KT 9999 SCT060

Weather observations and forecasts of more than 4000 airports (METAR and TAF reports).

The available stations are represented by yellow and red dots on the map.

Hover mouse over dot to see the name of the station.

Then click to see weather observations and forecasts.

To change the map : click on the green buttons with a black cross to zoom in, on the green button with a dash to zoom out, or on the green arrows for adjacent maps.


METAR-TAF: